sensor_id;sensor_type;location;lat;lon;timestamp;pressure;altitude;pressure_sealevel;temperature;humidity
20630;BME280;17386;43.846;25.950;2024-03-08T00:02:23;101743.19;;;6.26;nan
20630;BME280;17386;43.846;25.950;2024-03-08T00:04:49;101726.47;;;6.32;nan
20630;BME280;17386;43.846;25.950;2024-03-08T00:07:14;101734.41;;;6.18;nan
20630;BME280;17386;43.846;25.950;2024-03-08T00:09:40;101726.50;;;6.14;nan
20630;BME280;17386;43.846;25.950;2024-03-08T00:12:05;101737.91;;;6.16;nan
20630;BME280;17386;43.846;25.950;2024-03-08T00:14:31;101735.28;;;6.14;nan
20630;BME280;17386;43.846;25.950;2024-03-08T00:16:57;101709.78;;;6.10;nan
20630;BME280;17386;43.846;25.950;2024-03-08T00:19:22;101720.34;;;6.15;nan
20630;BME280;17386;43.846;25.950;2024-03-08T00:21:48;101719.50;;;5.99;nan
20630;BME280;17386;43.846;25.950;2024-03-08T00:24:13;101704.56;;;5.98;nan
20630;BME280;17386;43.846;25.950;2024-03-08T00:26:39;101708.03;;;6.11;nan
20630;BME280;17386;43.846;25.950;2024-03-08T00:29:04;101708.03;;;6.12;nan
20630;BME280;17386;43.846;25.950;2024-03-08T00:31:30;101702.75;;;6.03;nan
20630;BME280;17386;43.846;25.950;2024-03-08T00:33:57;101704.50;;;6.15;nan
20630;BME280;17386;43.846;25.950;2024-03-08T00:36:23;101697.50;;;6.00;nan
20630;BME280;17386;43.846;25.950;2024-03-08T00:38:48;101675.53;;;5.92;nan
20630;BME280;17386;43.846;25.950;2024-03-08T00:41:13;101700.97;;;6.17;nan
20630;BME280;17386;43.846;25.950;2024-03-08T00:43:39;101701.88;;;6.18;nan
20630;BME280;17386;43.846;25.950;2024-03-08T00:46:04;101714.13;;;6.29;nan
20630;BME280;17386;43.846;25.950;2024-03-08T00:48:30;101715.00;;;6.36;nan
20630;BME280;17386;43.846;25.950;2024-03-08T00:50:56;101714.13;;;6.40;nan
20630;BME280;17386;43.846;25.950;2024-03-08T00:53:22;101715.88;;;6.38;nan
20630;BME280;17386;43.846;25.950;2024-03-08T00:55:47;101709.75;;;6.32;nan
20630;BME280;17386;43.846;25.950;2024-03-08T00:58:14;101718.53;;;6.41;nan
20630;BME280;17386;43.846;25.950;2024-03-08T01:00:39;101719.44;;;6.26;nan
20630;BME280;17386;43.846;25.950;2024-03-08T01:03:05;101712.38;;;6.30;nan
20630;BME280;17386;43.846;25.950;2024-03-08T01:05:30;101716.78;;;6.23;nan
20630;BME280;17386;43.846;25.950;2024-03-08T01:07:56;101719.44;;;6.20;nan
20630;BME280;17386;43.846;25.950;2024-03-08T01:10:21;101718.56;;;6.17;nan
20630;BME280;17386;43.846;25.950;2024-03-08T01:12:48;101718.53;;;6.24;nan
20630;BME280;17386;43.846;25.950;2024-03-08T01:15:15;101724.72;;;6.22;nan
20630;BME280;17386;43.846;25.950;2024-03-08T01:17:40;101718.59;;;6.18;nan
20630;BME280;17386;43.846;25.950;2024-03-08T01:20:07;101716.81;;;6.25;nan
20630;BME280;17386;43.846;25.950;2024-03-08T01:22:33;101719.47;;;6.13;nan
20630;BME280;17386;43.846;25.950;2024-03-08T01:24:59;101714.16;;;6.17;nan
20630;BME280;17386;43.846;25.950;2024-03-08T01:27:24;101715.06;;;6.15;nan
20630;BME280;17386;43.846;25.950;2024-03-08T01:29:50;101719.44;;;6.26;nan
20630;BME280;17386;43.846;25.950;2024-03-08T01:32:15;101715.91;;;6.24;nan
20630;BME280;17386;43.846;25.950;2024-03-08T01:34:41;101725.59;;;6.32;nan
20630;BME280;17386;43.846;25.950;2024-03-08T01:37:07;101720.31;;;6.28;nan
20630;BME280;17386;43.846;25.950;2024-03-08T01:39:33;101721.19;;;6.24;nan
20630;BME280;17386;43.846;25.950;2024-03-08T01:41:58;101726.47;;;6.11;nan
20630;BME280;17386;43.846;25.950;2024-03-08T01:44:24;101723.00;;;6.13;nan
20630;BME280;17386;43.846;25.950;2024-03-08T01:46:51;101731.81;;;6.05;nan
20630;BME280;17386;43.846;25.950;2024-03-08T01:49:19;101729.13;;;6.09;nan
20630;BME280;17386;43.846;25.950;2024-03-08T01:51:47;101728.25;;;6.18;nan
20630;BME280;17386;43.846;25.950;2024-03-08T01:54:15;101726.47;;;6.26;nan
20630;BME280;17386;43.846;25.950;2024-03-08T01:56:42;101730.00;;;6.22;nan
20630;BME280;17386;43.846;25.950;2024-03-08T01:59:08;101729.16;;;6.12;nan
20630;BME280;17386;43.846;25.950;2024-03-08T02:01:36;101726.47;;;6.11;nan
20630;BME280;17386;43.846;25.950;2024-03-08T02:04:02;101723.84;;;6.17;nan
20630;BME280;17386;43.846;25.950;2024-03-08T02:06:28;101738.78;;;6.16;nan
20630;BME280;17386;43.846;25.950;2024-03-08T02:08:53;101738.81;;;6.10;nan
20630;BME280;17386;43.846;25.950;2024-03-08T02:11:19;101737.06;;;6.14;nan
20630;BME280;17386;43.846;25.950;2024-03-08T02:13:46;101729.13;;;6.26;nan
20630;BME280;17386;43.846;25.950;2024-03-08T02:16:11;101739.69;;;6.15;nan
20630;BME280;17386;43.846;25.950;2024-03-08T02:18:37;101741.44;;;6.21;nan
20630;BME280;17386;43.846;25.950;2024-03-08T02:21:06;101752.88;;;6.08;nan
20630;BME280;17386;43.846;25.950;2024-03-08T02:23:32;101743.22;;;6.05;nan
20630;BME280;17386;43.846;25.950;2024-03-08T02:25:58;101747.59;;;6.09;nan
20630;BME280;17386;43.846;25.950;2024-03-08T02:28:24;101744.09;;;5.96;nan
20630;BME280;17386;43.846;25.950;2024-03-08T02:30:56;101751.13;;;6.13;nan
20630;BME280;17386;43.846;25.950;2024-03-08T02:33:22;101753.75;;;6.26;nan
20630;BME280;17386;43.846;25.950;2024-03-08T02:35:48;101744.97;;;6.18;nan
20630;BME280;17386;43.846;25.950;2024-03-08T02:38:15;101748.50;;;6.13;nan
20630;BME280;17386;43.846;25.950;2024-03-08T02:40:48;101753.75;;;6.08;nan
20630;BME280;17386;43.846;25.950;2024-03-08T02:43:14;101756.41;;;6.08;nan
20630;BME280;17386;43.846;25.950;2024-03-08T02:45:41;101752.03;;;5.98;nan
20630;BME280;17386;43.846;25.950;2024-03-08T02:48:09;101754.66;;;6.06;nan
20630;BME280;17386;43.846;25.950;2024-03-08T02:50:38;101748.50;;;5.96;nan
20630;BME280;17386;43.846;25.950;2024-03-08T02:53:08;101740.53;;;5.76;nan
20630;BME280;17386;43.846;25.950;2024-03-08T02:55:41;101744.94;;;5.80;nan
20630;BME280;17386;43.846;25.950;2024-03-08T02:58:07;101744.97;;;5.85;nan
20630;BME280;17386;43.846;25.950;2024-03-08T03:00:36;101737.91;;;5.74;nan
20630;BME280;17386;43.846;25.950;2024-03-08T03:03:02;101751.09;;;5.74;nan
20630;BME280;17386;43.846;25.950;2024-03-08T03:05:29;101748.47;;;5.64;nan
20630;BME280;17386;43.846;25.950;2024-03-08T03:07:55;101750.25;;;5.63;nan
20630;BME280;17386;43.846;25.950;2024-03-08T03:10:21;101747.59;;;5.79;nan
20630;BME280;17386;43.846;25.950;2024-03-08T03:12:47;101731.78;;;5.77;nan
20630;BME280;17386;43.846;25.950;2024-03-08T03:15:14;101748.47;;;5.73;nan
20630;BME280;17386;43.846;25.950;2024-03-08T03:17:40;101737.03;;;5.72;nan
20630;BME280;17386;43.846;25.950;2024-03-08T03:20:08;101752.84;;;5.74;nan
20630;BME280;17386;43.846;25.950;2024-03-08T03:22:40;101750.25;;;5.71;nan
20630;BME280;17386;43.846;25.950;2024-03-08T03:25:12;101752.84;;;5.83;nan
20630;BME280;17386;43.846;25.950;2024-03-08T03:27:37;101730.00;;;5.61;nan
20630;BME280;17386;43.846;25.950;2024-03-08T03:30:04;101752.00;;;5.72;nan
20630;BME280;17386;43.846;25.950;2024-03-08T03:32:49;101749.34;;;5.60;nan
20630;BME280;17386;43.846;25.950;2024-03-08T03:35:21;101742.31;;;5.72;nan
20630;BME280;17386;43.846;25.950;2024-03-08T03:37:53;101750.25;;;5.71;nan
20630;BME280;17386;43.846;25.950;2024-03-08T03:40:38;101748.47;;;5.68;nan
20630;BME280;17386;43.846;25.950;2024-03-08T03:43:06;101756.41;;;5.78;nan
20630;BME280;17386;43.846;25.950;2024-03-08T03:45:32;101750.22;;;5.83;nan
20630;BME280;17386;43.846;25.950;2024-03-08T03:48:05;101757.31;;;5.92;nan
20630;BME280;17386;43.846;25.950;2024-03-08T03:50:31;101756.41;;;6.03;nan
20630;BME280;17386;43.846;25.950;2024-03-08T03:52:59;101766.06;;;6.09;nan
20630;BME280;17386;43.846;25.950;2024-03-08T03:55:25;101761.69;;;5.96;nan
20630;BME280;17386;43.846;25.950;2024-03-08T03:57:50;101761.69;;;5.91;nan
20630;BME280;17386;43.846;25.950;2024-03-08T04:00:16;101773.09;;;5.72;nan
20630;BME280;17386;43.846;25.950;2024-03-08T04:02:41;101774.84;;;5.81;nan
20630;BME280;17386;43.846;25.950;2024-03-08T04:05:08;101773.09;;;5.78;nan
20630;BME280;17386;43.846;25.950;2024-03-08T04:07:35;101774.84;;;5.87;nan
20630;BME280;17386;43.846;25.950;2024-03-08T04:10:03;101781.03;;;5.93;nan
20630;BME280;17386;43.846;25.950;2024-03-08T04:12:28;101778.38;;;5.90;nan
20630;BME280;17386;43.846;25.950;2024-03-08T04:14:57;101782.78;;;5.84;nan
20630;BME280;17386;43.846;25.950;2024-03-08T04:17:23;101786.28;;;5.84;nan
20630;BME280;17386;43.846;25.950;2024-03-08T04:19:51;101776.66;;;5.91;nan
20630;BME280;17386;43.846;25.950;2024-03-08T04:22:17;101776.59;;;5.88;nan
20630;BME280;17386;43.846;25.950;2024-03-08T04:24:46;101766.06;;;5.95;nan
20630;BME280;17386;43.846;25.950;2024-03-08T04:27:12;101775.72;;;5.86;nan
20630;BME280;17386;43.846;25.950;2024-03-08T04:29:38;101781.00;;;5.78;nan
20630;BME280;17386;43.846;25.950;2024-03-08T04:32:04;101772.19;;;5.73;nan
20630;BME280;17386;43.846;25.950;2024-03-08T04:34:30;101776.63;;;5.85;nan
20630;BME280;17386;43.846;25.950;2024-03-08T04:36:58;101781.91;;;5.94;nan
20630;BME280;17386;43.846;25.950;2024-03-08T04:39:24;101780.16;;;5.91;nan
20630;BME280;17386;43.846;25.950;2024-03-08T04:41:53;101776.59;;;5.79;nan
20630;BME280;17386;43.846;25.950;2024-03-08T04:44:20;101780.94;;;5.47;nan
20630;BME280;17386;43.846;25.950;2024-03-08T04:46:45;101778.34;;;5.49;nan
20630;BME280;17386;43.846;25.950;2024-03-08T04:49:12;101783.59;;;5.44;nan
20630;BME280;17386;43.846;25.950;2024-03-08T04:51:38;101778.28;;;5.34;nan
20630;BME280;17386;43.846;25.950;2024-03-08T04:54:04;101778.31;;;5.37;nan
20630;BME280;17386;43.846;25.950;2024-03-08T04:56:30;101784.47;;;5.45;nan
20630;BME280;17386;43.846;25.950;2024-03-08T04:58:55;101785.34;;;5.48;nan
20630;BME280;17386;43.846;25.950;2024-03-08T05:01:21;101785.34;;;5.53;nan
20630;BME280;17386;43.846;25.950;2024-03-08T05:03:47;101790.66;;;5.58;nan
20630;BME280;17386;43.846;25.950;2024-03-08T05:06:15;101799.41;;;5.47;nan
20630;BME280;17386;43.846;25.950;2024-03-08T05:08:40;101792.38;;;5.56;nan
20630;BME280;17386;43.846;25.950;2024-03-08T05:11:05;101794.16;;;5.58;nan
20630;BME280;17386;43.846;25.950;2024-03-08T05:13:32;101795.03;;;5.57;nan
20630;BME280;17386;43.846;25.950;2024-03-08T05:15:59;101797.66;;;5.59;nan
20630;BME280;17386;43.846;25.950;2024-03-08T05:18:25;101802.09;;;5.63;nan
20630;BME280;17386;43.846;25.950;2024-03-08T05:20:50;101809.97;;;5.66;nan
20630;BME280;17386;43.846;25.950;2024-03-08T05:23:16;101807.38;;;5.70;nan
20630;BME280;17386;43.846;25.950;2024-03-08T05:25:45;101810.00;;;5.70;nan
20630;BME280;17386;43.846;25.950;2024-03-08T05:28:12;101817.91;;;5.70;nan
20630;BME280;17386;43.846;25.950;2024-03-08T05:30:38;101817.00;;;5.68;nan
20630;BME280;17386;43.846;25.950;2024-03-08T05:33:03;101823.16;;;5.64;nan
20630;BME280;17386;43.846;25.950;2024-03-08T05:35:29;101822.22;;;5.38;nan
20630;BME280;17386;43.846;25.950;2024-03-08T05:37:54;101822.22;;;5.41;nan
20630;BME280;17386;43.846;25.950;2024-03-08T05:40:20;101825.78;;;5.52;nan
20630;BME280;17386;43.846;25.950;2024-03-08T05:42:45;101832.78;;;5.48;nan
20630;BME280;17386;43.846;25.950;2024-03-08T05:45:11;101834.56;;;5.51;nan
20630;BME280;17386;43.846;25.950;2024-03-08T05:47:39;101831.06;;;5.49;nan
20630;BME280;17386;43.846;25.950;2024-03-08T05:50:05;101827.53;;;5.52;nan
20630;BME280;17386;43.846;25.950;2024-03-08T05:52:31;101832.75;;;5.38;nan
20630;BME280;17386;43.846;25.950;2024-03-08T05:54:57;101842.41;;;5.42;nan
20630;BME280;17386;43.846;25.950;2024-03-08T05:57:23;101844.19;;;5.46;nan
20630;BME280;17386;43.846;25.950;2024-03-08T05:59:49;101841.53;;;5.40;nan
20630;BME280;17386;43.846;25.950;2024-03-08T06:02:14;101854.75;;;5.47;nan
20630;BME280;17386;43.846;25.950;2024-03-08T06:04:45;101849.50;;;5.54;nan
20630;BME280;17386;43.846;25.950;2024-03-08T06:07:12;101850.38;;;5.54;nan
20630;BME280;17386;43.846;25.950;2024-03-08T06:09:38;101858.28;;;5.54;nan
20630;BME280;17386;43.846;25.950;2024-03-08T06:12:03;101852.16;;;5.58;nan
20630;BME280;17386;43.846;25.950;2024-03-08T06:14:30;101862.66;;;5.54;nan
20630;BME280;17386;43.846;25.950;2024-03-08T06:16:55;101854.78;;;5.60;nan
20630;BME280;17386;43.846;25.950;2024-03-08T06:19:20;101854.78;;;5.69;nan
20630;BME280;17386;43.846;25.950;2024-03-08T06:21:46;101861.81;;;5.61;nan
20630;BME280;17386;43.846;25.950;2024-03-08T06:24:11;101860.09;;;5.63;nan
20630;BME280;17386;43.846;25.950;2024-03-08T06:26:37;101864.47;;;5.67;nan
20630;BME280;17386;43.846;25.950;2024-03-08T06:29:03;101861.84;;;5.70;nan
20630;BME280;17386;43.846;25.950;2024-03-08T06:31:32;101861.84;;;5.76;nan
20630;BME280;17386;43.846;25.950;2024-03-08T06:33:57;101853.94;;;5.71;nan
20630;BME280;17386;43.846;25.950;2024-03-08T06:36:23;101868.88;;;5.82;nan
20630;BME280;17386;43.846;25.950;2024-03-08T06:38:49;101874.16;;;5.74;nan
20630;BME280;17386;43.846;25.950;2024-03-08T06:41:14;101877.72;;;5.84;nan
20630;BME280;17386;43.846;25.950;2024-03-08T06:43:45;101875.06;;;5.87;nan
20630;BME280;17386;43.846;25.950;2024-03-08T06:46:11;101875.91;;;5.81;nan
20630;BME280;17386;43.846;25.950;2024-03-08T06:48:39;101879.41;;;5.65;nan
20630;BME280;17386;43.846;25.950;2024-03-08T06:51:05;101869.69;;;5.50;nan
20630;BME280;17386;43.846;25.950;2024-03-08T06:53:31;101881.13;;;5.55;nan
20630;BME280;17386;43.846;25.950;2024-03-08T06:56:01;101884.69;;;5.63;nan
20630;BME280;17386;43.846;25.950;2024-03-08T06:58:27;101868.84;;;5.60;nan
20630;BME280;17386;43.846;25.950;2024-03-08T07:00:53;101890.00;;;5.85;nan
20630;BME280;17386;43.846;25.950;2024-03-08T07:03:19;101882.97;;;5.88;nan
20630;BME280;17386;43.846;25.950;2024-03-08T07:05:45;101896.22;;;5.97;nan
20630;BME280;17386;43.846;25.950;2024-03-08T07:08:11;101891.81;;;6.02;nan
20630;BME280;17386;43.846;25.950;2024-03-08T07:10:39;101893.56;;;6.03;nan
20630;BME280;17386;43.846;25.950;2024-03-08T07:13:07;101894.47;;;6.13;nan
20630;BME280;17386;43.846;25.950;2024-03-08T07:15:32;101899.75;;;6.19;nan
20630;BME280;17386;43.846;25.950;2024-03-08T07:18:01;101895.34;;;6.14;nan
20630;BME280;17386;43.846;25.950;2024-03-08T07:20:27;101902.38;;;6.09;nan
20630;BME280;17386;43.846;25.950;2024-03-08T07:22:54;101895.34;;;6.05;nan
20630;BME280;17386;43.846;25.950;2024-03-08T07:25:19;101900.63;;;6.11;nan
20630;BME280;17386;43.846;25.950;2024-03-08T07:27:47;101899.75;;;6.09;nan
20630;BME280;17386;43.846;25.950;2024-03-08T07:30:12;101905.88;;;6.01;nan
20630;BME280;17386;43.846;25.950;2024-03-08T07:32:58;101901.53;;;6.11;nan
20630;BME280;17386;43.846;25.950;2024-03-08T07:35:23;101899.75;;;6.09;nan
20630;BME280;17386;43.846;25.950;2024-03-08T07:37:51;101907.69;;;6.25;nan
20630;BME280;17386;43.846;25.950;2024-03-08T07:40:16;101912.09;;;6.39;nan
20630;BME280;17386;43.846;25.950;2024-03-08T07:42:43;101905.03;;;6.35;nan
20630;BME280;17386;43.846;25.950;2024-03-08T07:45:09;101907.69;;;6.48;nan
20630;BME280;17386;43.846;25.950;2024-03-08T07:47:35;101899.75;;;6.65;nan
20630;BME280;17386;43.846;25.950;2024-03-08T07:50:01;101895.34;;;6.58;nan
20630;BME280;17386;43.846;25.950;2024-03-08T07:52:27;101906.81;;;6.60;nan
20630;BME280;17386;43.846;25.950;2024-03-08T07:54:52;101897.13;;;6.45;nan
20630;BME280;17386;43.846;25.950;2024-03-08T07:57:21;101903.28;;;6.32;nan
20630;BME280;17386;43.846;25.950;2024-03-08T07:59:46;101903.28;;;6.46;nan
20630;BME280;17386;43.846;25.950;2024-03-08T08:02:11;101909.44;;;6.60;nan
20630;BME280;17386;43.846;25.950;2024-03-08T08:04:37;101905.06;;;6.53;nan
20630;BME280;17386;43.846;25.950;2024-03-08T08:07:04;101906.81;;;6.52;nan
20630;BME280;17386;43.846;25.950;2024-03-08T08:09:29;101914.75;;;6.52;nan
20630;BME280;17386;43.846;25.950;2024-03-08T08:12:00;101909.44;;;6.65;nan
20630;BME280;17386;43.846;25.950;2024-03-08T08:14:27;101912.97;;;6.61;nan
20630;BME280;17386;43.846;25.950;2024-03-08T08:16:52;101914.75;;;6.52;nan
20630;BME280;17386;43.846;25.950;2024-03-08T08:19:18;101919.13;;;6.41;nan
20630;BME280;17386;43.846;25.950;2024-03-08T08:21:44;101924.41;;;6.53;nan
20630;BME280;17386;43.846;25.950;2024-03-08T08:24:09;101928.78;;;6.50;nan
20630;BME280;17386;43.846;25.950;2024-03-08T08:26:36;101920.88;;;6.57;nan
20630;BME280;17386;43.846;25.950;2024-03-08T08:29:01;101921.78;;;6.66;nan
20630;BME280;17386;43.846;25.950;2024-03-08T08:31:27;101905.91;;;6.75;nan
20630;BME280;17386;43.846;25.950;2024-03-08T08:33:52;101925.25;;;6.89;nan
20630;BME280;17386;43.846;25.950;2024-03-08T08:36:26;101923.50;;;6.88;nan
20630;BME280;17386;43.846;25.950;2024-03-08T08:38:55;101916.44;;;6.95;nan
20630;BME280;17386;43.846;25.950;2024-03-08T08:41:21;101921.69;;;7.08;nan
20630;BME280;17386;43.846;25.950;2024-03-08T08:43:47;101933.13;;;7.12;nan
20630;BME280;17386;43.846;25.950;2024-03-08T08:46:17;101925.16;;;7.24;nan
20630;BME280;17386;43.846;25.950;2024-03-08T08:48:42;101928.69;;;7.28;nan
20630;BME280;17386;43.846;25.950;2024-03-08T08:51:11;101934.84;;;7.34;nan
20630;BME280;17386;43.846;25.950;2024-03-08T08:53:41;101936.59;;;7.37;nan
20630;BME280;17386;43.846;25.950;2024-03-08T08:56:09;101941.91;;;7.20;nan
20630;BME280;17386;43.846;25.950;2024-03-08T08:58:41;101940.19;;;7.11;nan
20630;BME280;17386;43.846;25.950;2024-03-08T09:01:10;101924.31;;;7.22;nan
20630;BME280;17386;43.846;25.950;2024-03-08T09:03:37;101941.91;;;7.25;nan
20630;BME280;17386;43.846;25.950;2024-03-08T09:06:06;101939.31;;;7.08;nan
20630;BME280;17386;43.846;25.950;2024-03-08T09:08:37;101936.66;;;7.06;nan
20630;BME280;17386;43.846;25.950;2024-03-08T09:11:03;101937.53;;;7.16;nan
20630;BME280;17386;43.846;25.950;2024-03-08T09:13:29;101932.22;;;7.30;nan
20630;BME280;17386;43.846;25.950;2024-03-08T09:15:54;101930.41;;;7.38;nan
20630;BME280;17386;43.846;25.950;2024-03-08T09:18:20;101937.47;;;7.42;nan
20630;BME280;17386;43.846;25.950;2024-03-08T09:20:46;101920.66;;;7.48;nan
20630;BME280;17386;43.846;25.950;2024-03-08T09:23:12;101938.25;;;7.61;nan
20630;BME280;17386;43.846;25.950;2024-03-08T09:25:37;101933.00;;;7.52;nan
20630;BME280;17386;43.846;25.950;2024-03-08T09:28:03;101940.03;;;7.53;nan
20630;BME280;17386;43.846;25.950;2024-03-08T09:30:28;101937.41;;;7.51;nan
20630;BME280;17386;43.846;25.950;2024-03-08T09:32:54;101951.50;;;7.52;nan
20630;BME280;17386;43.846;25.950;2024-03-08T09:35:19;101948.94;;;7.32;nan
20630;BME280;17386;43.846;25.950;2024-03-08T09:37:45;101945.41;;;7.36;nan
20630;BME280;17386;43.846;25.950;2024-03-08T09:40:12;101950.66;;;7.50;nan
20630;BME280;17386;43.846;25.950;2024-03-08T09:42:41;101933.97;;;7.29;nan
20630;BME280;17386;43.846;25.950;2024-03-08T09:45:11;101948.88;;;7.50;nan
20630;BME280;17386;43.846;25.950;2024-03-08T09:47:39;101949.75;;;7.52;nan
20630;BME280;17386;43.846;25.950;2024-03-08T09:50:07;101949.75;;;7.48;nan
20630;BME280;17386;43.846;25.950;2024-03-08T09:52:36;101954.22;;;7.33;nan
20630;BME280;17386;43.846;25.950;2024-03-08T09:55:04;101945.38;;;7.48;nan
20630;BME280;17386;43.846;25.950;2024-03-08T09:57:31;101950.66;;;7.40;nan
20630;BME280;17386;43.846;25.950;2024-03-08T09:59:57;101946.28;;;7.36;nan
20630;BME280;17386;43.846;25.950;2024-03-08T10:02:23;101947.13;;;7.46;nan
20630;BME280;17386;43.846;25.950;2024-03-08T10:04:48;101942.72;;;7.48;nan
20630;BME280;17386;43.846;25.950;2024-03-08T10:07:14;101947.03;;;7.67;nan
20630;BME280;17386;43.846;25.950;2024-03-08T10:09:39;101946.97;;;7.84;nan
20630;BME280;17386;43.846;25.950;2024-03-08T10:12:07;101946.97;;;7.80;nan
20630;BME280;17386;43.846;25.950;2024-03-08T10:14:35;101946.97;;;7.81;nan
20630;BME280;17386;43.846;25.950;2024-03-08T10:17:03;101946.06;;;7.90;nan
20630;BME280;17386;43.846;25.950;2024-03-08T10:19:30;101951.38;;;7.81;nan
20630;BME280;17386;43.846;25.950;2024-03-08T10:21:58;101948.78;;;7.73;nan
20630;BME280;17386;43.846;25.950;2024-03-08T10:24:24;101947.03;;;7.66;nan
20630;BME280;17386;43.846;25.950;2024-03-08T10:26:58;101957.59;;;7.74;nan
20630;BME280;17386;43.846;25.950;2024-03-08T10:29:24;101959.38;;;7.67;nan
20630;BME280;17386;43.846;25.950;2024-03-08T10:31:50;101944.41;;;7.69;nan
20630;BME280;17386;43.846;25.950;2024-03-08T10:34:16;101942.53;;;7.86;nan
20630;BME280;17386;43.846;25.950;2024-03-08T10:36:42;101946.09;;;7.84;nan
20630;BME280;17386;43.846;25.950;2024-03-08T10:39:24;101944.25;;;7.93;nan
20630;BME280;17386;43.846;25.950;2024-03-08T10:42:02;101951.34;;;7.87;nan
20630;BME280;17386;43.846;25.950;2024-03-08T10:47:07;101950.50;;;7.80;nan
20630;BME280;17386;43.846;25.950;2024-03-08T10:49:50;101946.09;;;7.79;nan
20630;BME280;17386;43.846;25.950;2024-03-08T10:52:18;101933.75;;;7.84;nan
20630;BME280;17386;43.846;25.950;2024-03-08T10:54:45;101931.91;;;7.94;nan
20630;BME280;17386;43.846;25.950;2024-03-08T10:57:13;101927.53;;;7.91;nan
20630;BME280;17386;43.846;25.950;2024-03-08T10:59:40;101927.50;;;7.96;nan
20630;BME280;17386;43.846;25.950;2024-03-08T11:02:10;101931.97;;;7.89;nan
20630;BME280;17386;43.846;25.950;2024-03-08T11:04:37;101927.50;;;7.93;nan
20630;BME280;17386;43.846;25.950;2024-03-08T11:07:03;101923.09;;;7.93;nan
20630;BME280;17386;43.846;25.950;2024-03-08T11:09:40;101916.06;;;7.91;nan
20630;BME280;17386;43.846;25.950;2024-03-08T11:15:01;101915.22;;;7.83;nan
20630;BME280;17386;43.846;25.950;2024-03-08T11:19:56;101915.16;;;7.97;nan
20630;BME280;17386;43.846;25.950;2024-03-08T11:22:28;101910.75;;;7.97;nan
20630;BME280;17386;43.846;25.950;2024-03-08T11:25:03;101914.25;;;7.94;nan
20630;BME280;17386;43.846;25.950;2024-03-08T11:27:35;101917.78;;;7.98;nan
20630;BME280;17386;43.846;25.950;2024-03-08T11:30:03;101911.56;;;8.01;nan
20630;BME280;17386;43.846;25.950;2024-03-08T11:32:36;101912.38;;;8.13;nan
20630;BME280;17386;43.846;25.950;2024-03-08T11:35:06;101914.97;;;8.21;nan
20630;BME280;17386;43.846;25.950;2024-03-08T11:37:33;101915.06;;;8.10;nan
20630;BME280;17386;43.846;25.950;2024-03-08T11:40:11;101908.91;;;8.05;nan
20630;BME280;17386;43.846;25.950;2024-03-08T11:42:39;101908.94;;;8.01;nan
20630;BME280;17386;43.846;25.950;2024-03-08T11:45:09;101915.06;;;8.10;nan
20630;BME280;17386;43.846;25.950;2024-03-08T11:47:37;101906.28;;;8.04;nan
20630;BME280;17386;43.846;25.950;2024-03-08T11:50:06;101906.28;;;8.05;nan
20630;BME280;17386;43.846;25.950;2024-03-08T11:52:36;101901.81;;;8.09;nan
20630;BME280;17386;43.846;25.950;2024-03-08T11:55:01;101893.03;;;8.07;nan
20630;BME280;17386;43.846;25.950;2024-03-08T11:57:27;101903.50;;;8.22;nan
20630;BME280;17386;43.846;25.950;2024-03-08T11:59:55;101903.41;;;8.34;nan
20630;BME280;17386;43.846;25.950;2024-03-08T12:02:22;101901.59;;;8.42;nan
20630;BME280;17386;43.846;25.950;2024-03-08T12:04:55;101912.16;;;8.47;nan
20630;BME280;17386;43.846;25.950;2024-03-08T12:07:21;101900.78;;;8.31;nan
20630;BME280;17386;43.846;25.950;2024-03-08T12:10:22;101902.53;;;8.35;nan
20630;BME280;17386;43.846;25.950;2024-03-08T12:12:49;101904.28;;;8.36;nan
20630;BME280;17386;43.846;25.950;2024-03-08T12:15:16;101896.28;;;8.45;nan
20630;BME280;17386;43.846;25.950;2024-03-08T12:17:43;101891.75;;;8.57;nan
20630;BME280;17386;43.846;25.950;2024-03-08T12:20:15;101894.44;;;8.55;nan
20630;BME280;17386;43.846;25.950;2024-03-08T12:22:42;101887.44;;;8.48;nan
20630;BME280;17386;43.846;25.950;2024-03-08T12:25:08;101904.09;;;8.61;nan
20630;BME280;17386;43.846;25.950;2024-03-08T12:27:37;101897.94;;;8.60;nan
20630;BME280;17386;43.846;25.950;2024-03-08T12:30:35;101897.00;;;8.63;nan
20630;BME280;17386;43.846;25.950;2024-03-08T12:33:10;101893.47;;;8.64;nan
20630;BME280;17386;43.846;25.950;2024-03-08T12:35:38;101890.72;;;8.71;nan
20630;BME280;17386;43.846;25.950;2024-03-08T12:38:03;101886.38;;;8.64;nan
20630;BME280;17386;43.846;25.950;2024-03-08T12:40:32;101885.44;;;8.73;nan
20630;BME280;17386;43.846;25.950;2024-03-08T12:43:00;101888.88;;;8.83;nan
20630;BME280;17386;43.846;25.950;2024-03-08T12:45:26;101883.53;;;8.87;nan
20630;BME280;17386;43.846;25.950;2024-03-08T12:47:52;101881.88;;;8.79;nan
20630;BME280;17386;43.846;25.950;2024-03-08T12:50:19;101881.91;;;8.72;nan
20630;BME280;17386;43.846;25.950;2024-03-08T12:52:45;101867.84;;;8.66;nan
20630;BME280;17386;43.846;25.950;2024-03-08T12:55:10;101871.31;;;8.74;nan
20630;BME280;17386;43.846;25.950;2024-03-08T12:57:37;101873.06;;;8.75;nan
20630;BME280;17386;43.846;25.950;2024-03-08T13:00:04;101878.31;;;8.80;nan
20630;BME280;17386;43.846;25.950;2024-03-08T13:02:30;101870.41;;;8.75;nan
20630;BME280;17386;43.846;25.950;2024-03-08T13:04:58;101876.53;;;8.82;nan
20630;BME280;17386;43.846;25.950;2024-03-08T13:07:24;101879.03;;;8.94;nan
20630;BME280;17386;43.846;25.950;2024-03-08T13:09:54;101875.59;;;8.84;nan
20630;BME280;17386;43.846;25.950;2024-03-08T13:12:21;101880.03;;;8.84;nan
20630;BME280;17386;43.846;25.950;2024-03-08T13:14:47;101879.25;;;8.74;nan
20630;BME280;17386;43.846;25.950;2024-03-08T13:17:14;101874.91;;;8.67;nan
20630;BME280;17386;43.846;25.950;2024-03-08T13:19:39;101871.38;;;8.66;nan